sensor_id;sensor_type;location;lat;lon;timestamp;pressure;altitude;pressure_sealevel;temperature;humidity
73941;BME280;62294;48.554;10.202;2022-09-12T00:01:20;96316.91;;;8.51;88.43
73941;BME280;62294;48.554;10.202;2022-09-12T00:03:50;96314.69;;;8.48;88.14
73941;BME280;62294;48.554;10.202;2022-09-12T00:06:23;96309.38;;;8.48;88.00
73941;BME280;62294;48.554;10.202;2022-09-12T00:08:53;96316.91;;;8.51;87.38
73941;BME280;62294;48.554;10.202;2022-09-12T00:11:20;96310.22;;;8.55;87.64
73941;BME280;62294;48.554;10.202;2022-09-12T00:13:47;96310.59;;;8.52;87.37
73941;BME280;62294;48.554;10.202;2022-09-12T00:16:19;96313.03;;;8.47;86.89
73941;BME280;62294;48.554;10.202;2022-09-12T00:18:46;96306.50;;;8.43;87.90
73941;BME280;62294;48.554;10.202;2022-09-12T00:21:15;96304.56;;;8.24;88.40
73941;BME280;62294;48.554;10.202;2022-09-12T00:23:42;96305.75;;;8.15;88.81
73941;BME280;62294;48.554;10.202;2022-09-12T00:26:09;96303.75;;;8.24;88.48
73941;BME280;62294;48.554;10.202;2022-09-12T00:28:37;96305.38;;;8.18;88.29
73941;BME280;62294;48.554;10.202;2022-09-12T00:31:06;96305.59;;;8.23;88.17
73941;BME280;62294;48.554;10.202;2022-09-12T00:33:34;96302.56;;;8.26;88.12
73941;BME280;62294;48.554;10.202;2022-09-12T00:36:06;96300.69;;;8.20;87.52
73941;BME280;62294;48.554;10.202;2022-09-12T00:38:33;96303.09;;;8.15;87.56
73941;BME280;62294;48.554;10.202;2022-09-12T00:41:05;96299.03;;;8.13;87.75
73941;BME280;62294;48.554;10.202;2022-09-12T00:43:33;96304.28;;;8.06;88.21
73941;BME280;62294;48.554;10.202;2022-09-12T00:46:05;96296.31;;;8.00;88.47
73941;BME280;62294;48.554;10.202;2022-09-12T00:48:41;96293.09;;;8.04;88.02
73941;BME280;62294;48.554;10.202;2022-09-12T00:51:09;96287.97;;;7.96;87.86
73941;BME280;62294;48.554;10.202;2022-09-12T00:53:38;96295.25;;;7.94;87.74
73941;BME280;62294;48.554;10.202;2022-09-12T00:56:06;96285.31;;;7.96;87.70
73941;BME280;62294;48.554;10.202;2022-09-12T00:58:41;96288.75;;;7.97;87.67
73941;BME280;62294;48.554;10.202;2022-09-12T01:01:10;96281.41;;;7.92;87.99
73941;BME280;62294;48.554;10.202;2022-09-12T01:03:38;96276.53;;;7.89;87.67
73941;BME280;62294;48.554;10.202;2022-09-12T01:06:09;96279.81;;;7.91;88.15
73941;BME280;62294;48.554;10.202;2022-09-12T01:08:38;96275.06;;;7.80;88.77
73941;BME280;62294;48.554;10.202;2022-09-12T01:11:09;96286.03;;;7.77;88.72
73941;BME280;62294;48.554;10.202;2022-09-12T01:13:36;96283.38;;;7.77;87.87
73941;BME280;62294;48.554;10.202;2022-09-12T01:16:04;96269.94;;;7.78;88.34
73941;BME280;62294;48.554;10.202;2022-09-12T01:18:46;96280.81;;;7.90;88.72
73941;BME280;62294;48.554;10.202;2022-09-12T01:24:36;96276.09;;;7.85;88.47
73941;BME280;62294;48.554;10.202;2022-09-12T01:38:41;96264.81;;;7.64;88.12
73941;BME280;62294;48.554;10.202;2022-09-12T01:44:00;96250.31;;;7.60;87.89
73941;BME280;62294;48.554;10.202;2022-09-12T01:49:24;96252.31;;;7.51;88.04
73941;BME280;62294;48.554;10.202;2022-09-12T01:51:58;96244.63;;;7.56;88.13
73941;BME280;62294;48.554;10.202;2022-09-12T01:54:32;96247.03;;;7.51;88.10
73941;BME280;62294;48.554;10.202;2022-09-12T01:57:02;96243.78;;;7.56;87.40
73941;BME280;62294;48.554;10.202;2022-09-12T01:59:35;96237.63;;;7.42;88.28
73941;BME280;62294;48.554;10.202;2022-09-12T02:02:13;96238.16;;;7.31;89.19
73941;BME280;62294;48.554;10.202;2022-09-12T02:04:47;96236.72;;;7.29;88.92
73941;BME280;62294;48.554;10.202;2022-09-12T02:07:32;96233.94;;;7.37;88.09
73941;BME280;62294;48.554;10.202;2022-09-12T02:12:40;96241.19;;;7.28;87.76
73941;BME280;62294;48.554;10.202;2022-09-12T02:15:10;96229.16;;;7.26;88.35
73941;BME280;62294;48.554;10.202;2022-09-12T02:17:41;96236.34;;;7.32;87.91
73941;BME280;62294;48.554;10.202;2022-09-12T02:20:13;96223.75;;;7.34;87.19
73941;BME280;62294;48.554;10.202;2022-09-12T02:23:02;96224.91;;;7.25;87.50
73941;BME280;62294;48.554;10.202;2022-09-12T02:25:32;96223.66;;;7.21;87.85
73941;BME280;62294;48.554;10.202;2022-09-12T02:28:12;96228.53;;;7.24;87.81
73941;BME280;62294;48.554;10.202;2022-09-12T02:36:37;96227.66;;;7.10;89.12
73941;BME280;62294;48.554;10.202;2022-09-12T02:39:09;96231.97;;;7.18;88.59
73941;BME280;62294;48.554;10.202;2022-09-12T02:41:35;96223.66;;;7.21;88.47
73941;BME280;62294;48.554;10.202;2022-09-12T02:44:02;96219.34;;;7.13;88.21
73941;BME280;62294;48.554;10.202;2022-09-12T02:46:43;96224.81;;;7.11;88.62
73941;BME280;62294;48.554;10.202;2022-09-12T02:49:10;96228.66;;;7.09;88.14
73941;BME280;62294;48.554;10.202;2022-09-12T02:51:37;96227.22;;;7.06;88.92
73941;BME280;62294;48.554;10.202;2022-09-12T02:54:04;96219.09;;;7.08;88.16
73941;BME280;62294;48.554;10.202;2022-09-12T02:56:32;96215.78;;;6.99;87.71
73941;BME280;62294;48.554;10.202;2022-09-12T02:59:05;96214.59;;;7.02;87.63
73941;BME280;62294;48.554;10.202;2022-09-12T03:04:23;96209.44;;;6.94;88.51
73941;BME280;62294;48.554;10.202;2022-09-12T03:07:25;96216.13;;;6.90;87.99
73941;BME280;62294;48.554;10.202;2022-09-12T03:15:26;96200.41;;;7.09;87.70
73941;BME280;62294;48.554;10.202;2022-09-12T03:20:52;96214.59;;;7.02;87.28
73941;BME280;62294;48.554;10.202;2022-09-12T03:23:25;96199.56;;;7.02;88.05
73941;BME280;62294;48.554;10.202;2022-09-12T03:25:58;96206.09;;;7.06;87.55
73941;BME280;62294;48.554;10.202;2022-09-12T03:28:27;96204.44;;;7.05;88.09
73941;BME280;62294;48.554;10.202;2022-09-12T03:30:55;96201.47;;;7.15;87.38
73941;BME280;62294;48.554;10.202;2022-09-12T03:33:23;96211.66;;;7.18;87.62
73941;BME280;62294;48.554;10.202;2022-09-12T03:35:50;96214.13;;;7.26;87.44
73941;BME280;62294;48.554;10.202;2022-09-12T03:38:17;96212.69;;;7.24;87.01
73941;BME280;62294;48.554;10.202;2022-09-12T03:40:44;96219.09;;;7.08;87.27
73941;BME280;62294;48.554;10.202;2022-09-12T03:43:14;96207.69;;;7.07;87.71
73941;BME280;62294;48.554;10.202;2022-09-12T03:45:40;96205.88;;;7.08;87.92
73941;BME280;62294;48.554;10.202;2022-09-12T03:48:07;96208.09;;;7.04;88.56
73941;BME280;62294;48.554;10.202;2022-09-12T03:50:34;96217.09;;;7.16;88.49
73941;BME280;62294;48.554;10.202;2022-09-12T03:53:01;96208.25;;;7.31;87.90
73941;BME280;62294;48.554;10.202;2022-09-12T03:55:28;96202.81;;;7.39;87.72
73941;BME280;62294;48.554;10.202;2022-09-12T03:57:55;96207.78;;;7.55;87.90
73941;BME280;62294;48.554;10.202;2022-09-12T04:00:22;96210.50;;;7.68;87.06
73941;BME280;62294;48.554;10.202;2022-09-12T04:02:53;96209.06;;;7.65;87.03
73941;BME280;62294;48.554;10.202;2022-09-12T04:05:20;96203.38;;;7.68;87.48
73941;BME280;62294;48.554;10.202;2022-09-12T04:07:47;96204.59;;;7.72;87.12
73941;BME280;62294;48.554;10.202;2022-09-12T04:10:13;96202.63;;;7.87;87.32
73941;BME280;62294;48.554;10.202;2022-09-12T04:12:41;96208.34;;;7.84;87.84
73941;BME280;62294;48.554;10.202;2022-09-12T04:15:08;96206.44;;;7.72;88.31
73941;BME280;62294;48.554;10.202;2022-09-12T04:17:35;96200.66;;;7.55;87.53
73941;BME280;62294;48.554;10.202;2022-09-12T04:20:02;96205.19;;;7.68;88.03
73941;BME280;62294;48.554;10.202;2022-09-12T04:22:29;96205.19;;;7.68;88.07
73941;BME280;62294;48.554;10.202;2022-09-12T04:24:57;96208.84;;;7.67;88.57
73941;BME280;62294;48.554;10.202;2022-09-12T04:27:23;96204.59;;;7.72;88.70
73941;BME280;62294;48.554;10.202;2022-09-12T04:29:50;96206.66;;;7.77;87.93
73941;BME280;62294;48.554;10.202;2022-09-12T04:32:16;96208.69;;;7.75;88.43
73941;BME280;62294;48.554;10.202;2022-09-12T04:34:44;96202.78;;;7.73;88.18
73941;BME280;62294;48.554;10.202;2022-09-12T04:37:12;96206.69;;;7.83;88.13
73941;BME280;62294;48.554;10.202;2022-09-12T04:39:39;96202.44;;;7.89;88.66
73941;BME280;62294;48.554;10.202;2022-09-12T04:42:06;96206.13;;;8.08;88.18
73941;BME280;62294;48.554;10.202;2022-09-12T04:44:32;96205.97;;;8.16;88.35
73941;BME280;62294;48.554;10.202;2022-09-12T04:46:59;96202.34;;;8.23;88.73
73941;BME280;62294;48.554;10.202;2022-09-12T04:49:26;96194.00;;;8.26;88.13
73941;BME280;62294;48.554;10.202;2022-09-12T04:51:52;96194.84;;;8.33;87.42
73941;BME280;62294;48.554;10.202;2022-09-12T04:54:20;96200.13;;;8.40;87.97
73941;BME280;62294;48.554;10.202;2022-09-12T04:56:48;96202.16;;;8.38;87.37
73941;BME280;62294;48.554;10.202;2022-09-12T04:59:16;96197.72;;;8.51;87.81
73941;BME280;62294;48.554;10.202;2022-09-12T05:01:44;96200.94;;;8.34;87.02
73941;BME280;62294;48.554;10.202;2022-09-12T05:04:11;96206.59;;;8.24;87.38
73941;BME280;62294;48.554;10.202;2022-09-12T05:06:39;96207.03;;;8.21;86.68
73941;BME280;62294;48.554;10.202;2022-09-12T05:09:09;96215.13;;;8.13;86.70
73941;BME280;62294;48.554;10.202;2022-09-12T05:11:38;96217.16;;;8.11;87.62
73941;BME280;62294;48.554;10.202;2022-09-12T05:14:25;96219.00;;;8.11;87.28
73941;BME280;62294;48.554;10.202;2022-09-12T05:16:52;96218.34;;;7.96;87.58
73941;BME280;62294;48.554;10.202;2022-09-12T05:19:18;96214.53;;;8.18;87.75
73941;BME280;62294;48.554;10.202;2022-09-12T05:21:44;96219.59;;;8.06;87.53
73941;BME280;62294;48.554;10.202;2022-09-12T05:24:11;96219.53;;;7.86;88.61
73941;BME280;62294;48.554;10.202;2022-09-12T05:26:38;96215.31;;;8.05;89.01
73941;BME280;62294;48.554;10.202;2022-09-12T05:29:05;96211.16;;;8.30;89.05
73941;BME280;62294;48.554;10.202;2022-09-12T05:31:33;96218.50;;;8.54;88.77
73941;BME280;62294;48.554;10.202;2022-09-12T05:34:00;96218.28;;;8.63;88.57
73941;BME280;62294;48.554;10.202;2022-09-12T05:36:28;96227.28;;;8.81;88.09
73941;BME280;62294;48.554;10.202;2022-09-12T05:38:55;96224.66;;;9.01;88.12
73941;BME280;62294;48.554;10.202;2022-09-12T05:41:23;96220.56;;;8.85;87.84
73941;BME280;62294;48.554;10.202;2022-09-12T05:43:55;96230.34;;;9.11;88.80
73941;BME280;62294;48.554;10.202;2022-09-12T05:46:25;96225.03;;;9.24;88.54
73941;BME280;62294;48.554;10.202;2022-09-12T05:48:52;96226.78;;;9.56;88.20
73941;BME280;62294;48.554;10.202;2022-09-12T05:51:27;96230.66;;;9.67;87.11
73941;BME280;62294;48.554;10.202;2022-09-12T05:53:57;96225.31;;;9.73;87.80
73941;BME280;62294;48.554;10.202;2022-09-12T05:56:25;96225.22;;;9.42;87.07
73941;BME280;62294;48.554;10.202;2022-09-12T05:59:14;96230.69;;;9.47;87.06
73941;BME280;62294;48.554;10.202;2022-09-12T06:01:41;96224.50;;;9.73;88.23
73941;BME280;62294;48.554;10.202;2022-09-12T06:04:08;96229.78;;;9.79;87.26
73941;BME280;62294;48.554;10.202;2022-09-12T06:06:37;96226.63;;;9.51;87.25
73941;BME280;62294;48.554;10.202;2022-09-12T06:09:05;96222.38;;;9.94;88.73
73941;BME280;62294;48.554;10.202;2022-09-12T06:11:33;96233.31;;;10.24;88.52
73941;BME280;62294;48.554;10.202;2022-09-12T06:14:00;96233.28;;;10.31;87.19
73941;BME280;62294;48.554;10.202;2022-09-12T06:16:29;96229.56;;;10.32;86.83
73941;BME280;62294;48.554;10.202;2022-09-12T06:18:59;96229.81;;;10.61;87.04
73941;BME280;62294;48.554;10.202;2022-09-12T06:21:26;96235.44;;;10.78;85.55
73941;BME280;62294;48.554;10.202;2022-09-12T06:23:54;96229.94;;;10.73;84.26
73941;BME280;62294;48.554;10.202;2022-09-12T06:26:21;96236.09;;;10.98;85.73
73941;BME280;62294;48.554;10.202;2022-09-12T06:28:51;96227.88;;;11.00;84.67
73941;BME280;62294;48.554;10.202;2022-09-12T06:31:23;96228.53;;;10.95;82.76
73941;BME280;62294;48.554;10.202;2022-09-12T06:33:51;96228.91;;;10.74;82.63
73941;BME280;62294;48.554;10.202;2022-09-12T06:36:20;96230.72;;;11.05;84.88
73941;BME280;62294;48.554;10.202;2022-09-12T06:38:52;96235.63;;;11.51;84.34
73941;BME280;62294;48.554;10.202;2022-09-12T06:41:20;96228.41;;;11.76;84.14
73941;BME280;62294;48.554;10.202;2022-09-12T06:43:47;96230.66;;;11.97;83.03
73941;BME280;62294;48.554;10.202;2022-09-12T06:46:13;96230.13;;;12.06;82.11
73941;BME280;62294;48.554;10.202;2022-09-12T06:48:40;96229.97;;;11.83;79.77
73941;BME280;62294;48.554;10.202;2022-09-12T06:51:13;96235.47;;;11.64;82.32
73941;BME280;62294;48.554;10.202;2022-09-12T06:53:41;96244.38;;;12.12;81.06
73941;BME280;62294;48.554;10.202;2022-09-12T06:56:13;96237.84;;;12.26;81.55
73941;BME280;62294;48.554;10.202;2022-09-12T06:58:40;96234.91;;;12.34;78.06
73941;BME280;62294;48.554;10.202;2022-09-12T07:01:13;96233.47;;;11.84;79.54
73941;BME280;62294;48.554;10.202;2022-09-12T07:03:41;96238.94;;;11.46;81.18
73941;BME280;62294;48.554;10.202;2022-09-12T07:06:09;96231.38;;;11.86;82.40
73941;BME280;62294;48.554;10.202;2022-09-12T07:08:37;96228.22;;;12.43;82.30
73941;BME280;62294;48.554;10.202;2022-09-12T07:11:19;96232.84;;;12.77;81.40
73941;BME280;62294;48.554;10.202;2022-09-12T07:13:48;96232.34;;;11.91;81.11
73941;BME280;62294;48.554;10.202;2022-09-12T07:16:16;96240.88;;;11.14;86.97
73941;BME280;62294;48.554;10.202;2022-09-12T07:18:49;96233.59;;;11.03;86.98
73941;BME280;62294;48.554;10.202;2022-09-12T07:21:17;96238.91;;;11.28;87.77
73941;BME280;62294;48.554;10.202;2022-09-12T07:23:43;96237.63;;;11.55;83.99
73941;BME280;62294;48.554;10.202;2022-09-12T07:26:12;96236.63;;;12.10;84.89
73941;BME280;62294;48.554;10.202;2022-09-12T07:28:39;96240.88;;;11.57;83.94
73941;BME280;62294;48.554;10.202;2022-09-12T07:31:07;96233.59;;;11.89;84.09
73941;BME280;62294;48.554;10.202;2022-09-12T07:33:35;96227.97;;;11.79;84.06
73941;BME280;62294;48.554;10.202;2022-09-12T07:36:03;96222.03;;;11.59;85.46
73941;BME280;62294;48.554;10.202;2022-09-12T07:38:30;96230.56;;;11.67;85.36
73941;BME280;62294;48.554;10.202;2022-09-12T07:40:57;96231.88;;;11.15;87.69
73941;BME280;62294;48.554;10.202;2022-09-12T07:43:24;96224.72;;;11.95;87.37
73941;BME280;62294;48.554;10.202;2022-09-12T07:45:56;96235.16;;;11.35;87.59
73941;BME280;62294;48.554;10.202;2022-09-12T07:48:23;96232.28;;;12.28;84.74
73941;BME280;62294;48.554;10.202;2022-09-12T07:50:57;96237.16;;;11.83;85.78
73941;BME280;62294;48.554;10.202;2022-09-12T07:53:55;96234.50;;;11.83;87.32
73941;BME280;62294;48.554;10.202;2022-09-12T07:56:21;96230.22;;;11.82;86.75
73941;BME280;62294;48.554;10.202;2022-09-12T07:58:54;96238.75;;;12.20;86.73
73941;BME280;62294;48.554;10.202;2022-09-12T08:01:22;96239.34;;;12.81;84.92
73941;BME280;62294;48.554;10.202;2022-09-12T08:03:52;96239.03;;;13.01;82.81
73941;BME280;62294;48.554;10.202;2022-09-12T08:06:21;96245.59;;;13.28;82.75
73941;BME280;62294;48.554;10.202;2022-09-12T08:08:51;96240.41;;;14.19;77.47
73941;BME280;62294;48.554;10.202;2022-09-12T08:11:19;96248.97;;;13.47;80.58
73941;BME280;62294;48.554;10.202;2022-09-12T08:13:48;96246.44;;;13.40;83.19
73941;BME280;62294;48.554;10.202;2022-09-12T08:16:22;96255.84;;;12.60;83.05
73941;BME280;62294;48.554;10.202;2022-09-12T08:18:50;96257.19;;;13.11;83.11
73941;BME280;62294;48.554;10.202;2022-09-12T08:21:19;96248.28;;;14.38;79.85
73941;BME280;62294;48.554;10.202;2022-09-12T08:23:46;96252.25;;;14.63;78.14
73941;BME280;62294;48.554;10.202;2022-09-12T08:26:16;96250.00;;;13.81;78.77
73941;BME280;62294;48.554;10.202;2022-09-12T08:28:44;96254.06;;;13.83;80.32
73941;BME280;62294;48.554;10.202;2022-09-12T08:31:14;96253.97;;;13.43;80.46
73941;BME280;62294;48.554;10.202;2022-09-12T08:33:41;96250.63;;;13.71;81.24
73941;BME280;62294;48.554;10.202;2022-09-12T08:36:14;96249.75;;;14.05;80.14
73941;BME280;62294;48.554;10.202;2022-09-12T08:38:43;96243.63;;;14.73;79.63
73941;BME280;62294;48.554;10.202;2022-09-12T08:49:38;96245.50;;;16.97;69.28
73941;BME280;62294;48.554;10.202;2022-09-12T08:52:18;96255.63;;;16.63;70.30
73941;BME280;62294;48.554;10.202;2022-09-12T08:54:48;96247.03;;;17.88;67.32
73941;BME280;62294;48.554;10.202;2022-09-12T08:57:15;96242.50;;;17.89;67.50
73941;BME280;62294;48.554;10.202;2022-09-12T08:59:44;96247.31;;;19.61;60.21
73941;BME280;62294;48.554;10.202;2022-09-12T09:10:58;96235.19;;;19.68;61.91
73941;BME280;62294;48.554;10.202;2022-09-12T09:13:52;96227.53;;;20.85;57.86
73941;BME280;62294;48.554;10.202;2022-09-12T09:16:43;96224.06;;;23.55;52.61
73941;BME280;62294;48.554;10.202;2022-09-12T09:19:29;96217.34;;;23.52;49.73
73941;BME280;62294;48.554;10.202;2022-09-12T09:22:01;96225.53;;;22.25;52.18
73941;BME280;62294;48.554;10.202;2022-09-12T09:24:52;96217.56;;;20.75;56.77
73941;BME280;62294;48.554;10.202;2022-09-12T09:27:31;96222.75;;;21.15;54.68
73941;BME280;62294;48.554;10.202;2022-09-12T09:30:17;96209.09;;;23.06;49.07
73941;BME280;62294;48.554;10.202;2022-09-12T09:32:54;96211.69;;;23.49;44.88
73941;BME280;62294;48.554;10.202;2022-09-12T09:35:31;96212.44;;;24.00;44.04
73941;BME280;62294;48.554;10.202;2022-09-12T09:43:23;96213.44;;;24.72;42.24
73941;BME280;62294;48.554;10.202;2022-09-12T09:45:52;96206.78;;;24.92;41.93
73941;BME280;62294;48.554;10.202;2022-09-12T09:51:04;96200.91;;;25.12;42.45
73941;BME280;62294;48.554;10.202;2022-09-12T09:53:40;96203.44;;;24.32;43.03
73941;BME280;62294;48.554;10.202;2022-09-12T09:56:23;96202.69;;;24.67;42.21
73941;BME280;62294;48.554;10.202;2022-09-12T09:58:52;96201.50;;;25.67;39.50
73941;BME280;62294;48.554;10.202;2022-09-12T10:01:18;96197.72;;;23.87;43.78
73941;BME280;62294;48.554;10.202;2022-09-12T10:03:52;96205.34;;;23.85;43.66
73941;BME280;62294;48.554;10.202;2022-09-12T10:06:32;96199.84;;;24.72;41.45
73941;BME280;62294;48.554;10.202;2022-09-12T10:11:40;96191.75;;;24.45;42.45
73941;BME280;62294;48.554;10.202;2022-09-12T10:17:22;96199.78;;;24.77;41.65
73941;BME280;62294;48.554;10.202;2022-09-12T10:19:49;96195.81;;;25.32;41.08
73941;BME280;62294;48.554;10.202;2022-09-12T10:22:36;96190.84;;;24.99;41.05
73941;BME280;62294;48.554;10.202;2022-09-12T10:25:10;96196.06;;;25.67;40.39
73941;BME280;62294;48.554;10.202;2022-09-12T10:27:37;96199.38;;;24.56;42.15
73941;BME280;62294;48.554;10.202;2022-09-12T10:30:22;96186.69;;;24.65;43.12
73941;BME280;62294;48.554;10.202;2022-09-12T10:32:57;96192.44;;;24.64;42.07
73941;BME280;62294;48.554;10.202;2022-09-12T10:35:30;96190.44;;;25.94;40.28
73941;BME280;62294;48.554;10.202;2022-09-12T10:38:18;96176.75;;;27.37;38.10
73941;BME280;62294;48.554;10.202;2022-09-12T10:41:15;96178.97;;;27.10;37.83
73941;BME280;62294;48.554;10.202;2022-09-12T10:43:41;96176.91;;;26.42;36.76
73941;BME280;62294;48.554;10.202;2022-09-12T10:48:48;96173.16;;;27.54;35.38
73941;BME280;62294;48.554;10.202;2022-09-12T10:53:58;96171.41;;;26.33;37.29
73941;BME280;62294;48.554;10.202;2022-09-12T10:56:30;96184.84;;;26.21;38.00
73941;BME280;62294;48.554;10.202;2022-09-12T11:01:49;96178.06;;;24.09;38.80
73941;BME280;62294;48.554;10.202;2022-09-12T11:13:18;96167.41;;;26.00;37.28
73941;BME280;62294;48.554;10.202;2022-09-12T11:19:02;96180.66;;;24.68;38.59
73941;BME280;62294;48.554;10.202;2022-09-12T11:24:21;96169.47;;;25.42;37.89
73941;BME280;62294;48.554;10.202;2022-09-12T11:29:39;96163.28;;;24.29;41.91
73941;BME280;62294;48.554;10.202;2022-09-12T11:37:38;96160.50;;;27.41;34.32
73941;BME280;62294;48.554;10.202;2022-09-12T11:40:32;96163.94;;;25.77;37.87
73941;BME280;62294;48.554;10.202;2022-09-12T11:45:42;96149.25;;;27.00;36.91
73941;BME280;62294;48.554;10.202;2022-09-12T11:48:16;96152.22;;;25.77;37.18
73941;BME280;62294;48.554;10.202;2022-09-12T11:50:44;96141.72;;;26.15;35.56
73941;BME280;62294;48.554;10.202;2022-09-12T11:53:18;96140.91;;;26.79;36.03
73941;BME280;62294;48.554;10.202;2022-09-12T11:55:59;96141.22;;;27.63;34.23
73941;BME280;62294;48.554;10.202;2022-09-12T11:58:30;96138.25;;;26.00;35.98
73941;BME280;62294;48.554;10.202;2022-09-12T12:01:08;96142.91;;;28.02;33.02
73941;BME280;62294;48.554;10.202;2022-09-12T12:03:41;96135.44;;;27.56;32.22
73941;BME280;62294;48.554;10.202;2022-09-12T12:06:19;96129.16;;;28.19;32.47
73941;BME280;62294;48.554;10.202;2022-09-12T12:08:48;96137.06;;;27.23;33.97
73941;BME280;62294;48.554;10.202;2022-09-12T12:11:34;96134.03;;;26.99;32.98
73941;BME280;62294;48.554;10.202;2022-09-12T12:14:12;96134.97;;;27.28;32.55
73941;BME280;62294;48.554;10.202;2022-09-12T12:16:41;96138.06;;;26.36;33.32
73941;BME280;62294;48.554;10.202;2022-09-12T12:21:45;96117.63;;;27.33;32.69
73941;BME280;62294;48.554;10.202;2022-09-12T12:24:22;96112.88;;;27.85;32.17
73941;BME280;62294;48.554;10.202;2022-09-12T12:34:39;96099.06;;;25.26;37.20
73941;BME280;62294;48.554;10.202;2022-09-12T12:50:11;96080.88;;;22.50;41.27
73941;BME280;62294;48.554;10.202;2022-09-12T12:55:25;96075.13;;;22.56;40.65
73941;BME280;62294;48.554;10.202;2022-09-12T12:57:55;96078.66;;;21.96;41.81
73941;BME280;62294;48.554;10.202;2022-09-12T13:00:24;96074.72;;;22.26;42.15
73941;BME280;62294;48.554;10.202;2022-09-12T13:05:40;96060.66;;;22.05;44.70
73941;BME280;62294;48.554;10.202;2022-09-12T13:10:51;96073.56;;;22.32;42.98
73941;BME280;62294;48.554;10.202;2022-09-12T13:13:25;96071.06;;;22.17;44.16
73941;BME280;62294;48.554;10.202;2022-09-12T13:15:53;96067.84;;;22.89;43.07
73941;BME280;62294;48.554;10.202;2022-09-12T13:18:25;96063.03;;;21.41;47.85
73941;BME280;62294;48.554;10.202;2022-09-12T13:21:06;96069.94;;;21.75;47.46
73941;BME280;62294;48.554;10.202;2022-09-12T13:23:34;96059.13;;;21.99;46.53
73941;BME280;62294;48.554;10.202;2022-09-12T13:26:02;96059.72;;;22.15;46.08
73941;BME280;62294;48.554;10.202;2022-09-12T13:28:30;96060.53;;;22.52;45.83
73941;BME280;62294;48.554;10.202;2022-09-12T13:31:06;96064.16;;;21.87;46.40
73941;BME280;62294;48.554;10.202;2022-09-12T13:33:39;96059.03;;;21.85;47.53
73941;BME280;62294;48.554;10.202;2022-09-12T13:41:39;96056.66;;;22.21;46.22
73941;BME280;62294;48.554;10.202;2022-09-12T13:44:14;96057.63;;;22.49;47.07
73941;BME280;62294;48.554;10.202;2022-09-12T13:46:42;96061.94;;;21.89;48.20
73941;BME280;62294;48.554;10.202;2022-09-12T13:49:25;96045.25;;;22.06;48.56
73941;BME280;62294;48.554;10.202;2022-09-12T13:52:18;96046.53;;;22.45;47.92
73941;BME280;62294;48.554;10.202;2022-09-12T13:54:49;96039.97;;;22.33;47.68
73941;BME280;62294;48.554;10.202;2022-09-12T14:00:19;96037.84;;;22.30;47.32
73941;BME280;62294;48.554;10.202;2022-09-12T14:02:48;96034.56;;;22.33;47.69
73941;BME280;62294;48.554;10.202;2022-09-12T14:05:24;96040.78;;;22.71;47.48
73941;BME280;62294;48.554;10.202;2022-09-12T14:07:59;96031.25;;;21.99;47.13
73941;BME280;62294;48.554;10.202;2022-09-12T14:10:41;96026.63;;;21.33;48.41
73941;BME280;62294;48.554;10.202;2022-09-12T14:13:11;96026.22;;;22.11;46.17
73941;BME280;62294;48.554;10.202;2022-09-12T14:15:38;96025.25;;;21.07;47.67
73941;BME280;62294;48.554;10.202;2022-09-12T14:18:21;96023.78;;;21.90;47.50
73941;BME280;62294;48.554;10.202;2022-09-12T14:20:48;96027.56;;;21.66;47.72
73941;BME280;62294;48.554;10.202;2022-09-12T14:23:27;96027.06;;;21.64;47.41
73941;BME280;62294;48.554;10.202;2022-09-12T14:25:55;96028.84;;;21.50;48.45
73941;BME280;62294;48.554;10.202;2022-09-12T14:28:23;96026.66;;;21.52;49.07
73941;BME280;62294;48.554;10.202;2022-09-12T14:31:21;96015.84;;;21.99;46.17
73941;BME280;62294;48.554;10.202;2022-09-12T14:36:26;96021.84;;;21.49;48.29
73941;BME280;62294;48.554;10.202;2022-09-12T14:38:58;96002.44;;;21.89;48.04
73941;BME280;62294;48.554;10.202;2022-09-12T14:41:34;96007.34;;;21.40;50.01
73941;BME280;62294;48.554;10.202;2022-09-12T14:44:05;95998.88;;;21.46;49.28
73941;BME280;62294;48.554;10.202;2022-09-12T14:46:35;95987.66;;;21.58;49.79
73941;BME280;62294;48.554;10.202;2022-09-12T14:49:08;95989.22;;;22.06;48.67
73941;BME280;62294;48.554;10.202;2022-09-12T14:51:47;95989.03;;;21.98;48.47
73941;BME280;62294;48.554;10.202;2022-09-12T14:57:01;95977.06;;;22.22;46.88
73941;BME280;62294;48.554;10.202;2022-09-12T14:59:38;95979.09;;;22.30;47.31
73941;BME280;62294;48.554;10.202;2022-09-12T15:07:28;95970.47;;;22.28;47.13
73941;BME280;62294;48.554;10.202;2022-09-12T15:10:06;95962.41;;;22.05;47.21
73941;BME280;62294;48.554;10.202;2022-09-12T15:12:39;95961.16;;;21.78;47.78
73941;BME280;62294;48.554;10.202;2022-09-12T15:15:13;95974.28;;;21.90;46.84
73941;BME280;62294;48.554;10.202;2022-09-12T15:17:40;95970.16;;;21.74;47.59
73941;BME280;62294;48.554;10.202;2022-09-12T15:20:07;95976.47;;;21.88;46.01
73941;BME280;62294;48.554;10.202;2022-09-12T15:22:35;95964.03;;;21.87;45.78
73941;BME280;62294;48.554;10.202;2022-09-12T15:25:04;95965.88;;;21.68;46.46
73941;BME280;62294;48.554;10.202;2022-09-12T15:27:31;95965.41;;;21.61;47.64
73941;BME280;62294;48.554;10.202;2022-09-12T15:29:58;95961.34;;;21.45;47.33
73941;BME280;62294;48.554;10.202;2022-09-12T15:32:26;95964.75;;;21.50;46.86
73941;BME280;62294;48.554;10.202;2022-09-12T15:34:53;95962.91;;;21.46;46.79
73941;BME280;62294;48.554;10.202;2022-09-12T15:37:21;95970.88;;;21.37;46.50
73941;BME280;62294;48.554;10.202;2022-09-12T15:39:50;95975.00;;;21.53;46.05
73941;BME280;62294;48.554;10.202;2022-09-12T15:42:18;95968.34;;;21.46;47.74
73941;BME280;62294;48.554;10.202;2022-09-12T15:44:51;95958.78;;;21.30;48.47
73941;BME280;62294;48.554;10.202;2022-09-12T15:47:18;95972.78;;;21.37;47.75
73941;BME280;62294;48.554;10.202;2022-09-12T15:49:44;95966.56;;;21.36;48.01
73941;BME280;62294;48.554;10.202;2022-09-12T15:52:14;95963.13;;;21.31;48.21